Time;durP1;ratioP1;P1;durP2;ratioP2;P2;SDS_P1;SDS_P2;PMS_P1;PMS_P2;Temp;Humidity;BMP_temperature;BMP_pressure;BME280_temperature;BME280_humidity;BME280_pressure;Samples;Min_cycle;Max_cycle;Signal;HPM_P1;HPM_P2
2022/05/04 00:00:13;;;;;;;6.20;2.43;;;21.90;99.90;;;;;;5095584;28;20538;-69
2022/05/04 00:02:42;;;;;;;7.43;2.60;;;21.60;99.90;;;;;;5095381;28;20170;-69
2022/05/04 00:05:10;;;;;;;4.40;2.10;;;21.70;99.90;;;;;;5095290;28;20655;-70
2022/05/04 00:07:38;;;;;;;5.10;1.73;;;21.60;99.90;;;;;;5095252;28;20174;-69
2022/05/04 00:10:07;;;;;;;10.37;2.60;;;22.10;99.90;;;;;;5095242;28;20224;-69
2022/05/04 00:12:35;;;;;;;4.53;2.13;;;21.90;99.90;;;;;;5095366;28;20542;-69
2022/05/04 00:15:05;;;;;;;2.73;1.67;;;21.80;99.90;;;;;;5095310;28;20168;-69
2022/05/04 00:17:32;;;;;;;9.53;1.80;;;22.10;99.90;;;;;;5095215;28;20182;-70
2022/05/04 00:20:00;;;;;;;10.13;2.30;;;22.40;99.90;;;;;;5093743;28;20666;-69
2022/05/04 00:22:28;;;;;;;8.33;3.07;;;22.70;99.90;;;;;;5094397;28;20260;-70
2022/05/04 00:24:56;;;;;;;6.80;2.47;;;22.60;99.90;;;;;;5095075;28;20199;-70
2022/05/04 00:27:24;;;;;;;6.93;2.50;;;23.00;99.90;;;;;;5094953;28;20175;-69
2022/05/04 00:29:52;;;;;;;5.83;2.47;;;23.30;99.90;;;;;;5093834;28;20215;-68
2022/05/04 00:32:19;;;;;;;8.20;2.10;;;23.50;99.90;;;;;;5094563;28;20269;-68
2022/05/04 00:34:48;;;;;;;8.27;2.37;;;23.60;99.90;;;;;;5094187;28;20612;-67
2022/05/04 00:37:15;;;;;;;6.93;2.57;;;24.10;99.90;;;;;;5094691;28;20179;-67
2022/05/04 00:39:43;;;;;;;10.00;3.30;;;23.60;99.90;;;;;;5093427;28;20190;-68
2022/05/04 00:42:14;;;;;;;13.30;3.43;;;22.20;99.90;;;;;;5073028;28;20722;-68
2022/05/04 00:44:44;;;;;;;15.37;2.97;;;22.20;99.90;;;;;;5074267;28;20198;-67
2022/05/04 00:47:12;;;;;;;8.50;3.50;;;22.90;99.90;;;;;;5074355;28;20222;-69
2022/05/04 00:49:41;;;;;;;15.20;3.20;;;23.20;99.90;;;;;;5074250;28;20225;-70
2022/05/04 00:52:13;;;;;;;14.50;2.80;;;23.90;99.90;;;;;;5073791;28;20312;-69
2022/05/04 00:54:44;;;;;;;12.13;2.90;;;24.60;99.90;;;;;;5074087;28;20211;-69
2022/05/04 00:57:14;;;;;;;8.43;3.13;;;25.10;99.90;;;;;;5074795;28;20241;-70
2022/05/04 00:59:42;;;;;;;9.03;2.73;;;25.30;99.90;;;;;;5074113;28;20176;-70
2022/05/04 01:02:10;;;;;;;10.07;3.20;;;25.00;99.90;;;;;;5073803;28;20179;-69
2022/05/04 01:04:37;;;;;;;14.07;3.33;;;25.60;99.90;;;;;;5074122;28;20205;-69
2022/05/04 01:07:05;;;;;;;10.87;3.17;;;25.60;99.90;;;;;;5072410;28;20697;-69
2022/05/04 01:09:32;;;;;;;6.70;2.43;;;25.70;99.90;;;;;;5073947;28;20258;-69
2022/05/04 01:11:59;;;;;;;12.20;2.90;;;26.00;99.90;;;;;;5089491;28;20176;-70
2022/05/04 01:14:27;;;;;;;6.77;2.17;;;26.30;99.90;;;;;;5089406;28;20184;-70
2022/05/04 01:16:54;;;;;;;10.30;2.73;;;26.20;99.90;;;;;;5073707;28;20172;-69
2022/05/04 01:19:21;;;;;;;9.93;2.80;;;25.80;99.90;;;;;;5074360;28;20172;-69
2022/05/04 01:21:51;;;;;;;3.17;1.47;;;25.90;99.90;;;;;;5073672;28;20172;-70
2022/05/04 01:24:19;;;;;;;6.33;1.70;;;25.70;99.90;;;;;;5073878;28;20178;-70
2022/05/04 01:26:46;;;;;;;5.43;1.63;;;25.40;99.90;;;;;;5073378;28;20204;-69
2022/05/04 01:29:14;;;;;;;5.53;1.30;;;25.10;99.90;;;;;;5073893;28;20178;-70
2022/05/04 01:31:42;;;;;;;6.50;1.50;;;25.60;99.90;;;;;;5073527;28;20258;-69
2022/05/04 01:34:09;;;;;;;5.73;1.10;;;26.10;99.90;;;;;;5073633;28;20180;-69
2022/05/04 01:36:37;;;;;;;2.03;1.10;;;26.00;99.90;;;;;;5073423;28;20262;-69
2022/05/04 01:39:04;;;;;;;3.60;1.37;;;26.10;99.90;;;;;;5073640;28;20184;-69
2022/05/04 01:44:16;;;;;;;2.57;1.20;;;25.80;99.90;;;;;;5073885;28;20233;-68
2022/05/04 01:46:43;;;;;;;2.60;1.37;;;26.10;99.90;;;;;;5073320;28;20215;-68
2022/05/04 01:49:11;;;;;;;6.93;1.40;;;26.00;99.90;;;;;;5073436;28;20183;-67
2022/05/04 01:51:38;;;;;;;4.27;0.93;;;26.00;99.90;;;;;;5091362;28;20640;-67
2022/05/04 01:54:05;;;;;;;2.73;1.20;;;26.20;99.90;;;;;;5091489;28;20179;-68
2022/05/04 01:56:33;;;;;;;5.10;1.43;;;26.30;99.90;;;;;;5090472;28;20236;-66
2022/05/04 01:59:00;;;;;;;5.57;1.13;;;27.00;99.90;;;;;;5091313;28;20183;-67
2022/05/04 02:01:28;;;;;;;3.87;1.17;;;26.60;99.90;;;;;;5092200;28;20171;-67
2022/05/04 02:03:56;;;;;;;6.73;1.10;;;26.70;99.90;;;;;;5092054;28;20176;-67
2022/05/04 02:06:23;;;;;;;3.57;1.03;;;26.70;99.90;;;;;;5091805;28;20246;-68
2022/05/04 02:08:51;;;;;;;3.43;1.00;;;27.10;99.90;;;;;;5090391;28;20175;-67
2022/05/04 02:11:18;;;;;;;2.13;1.00;;;27.40;99.90;;;;;;5091423;28;20645;-68
2022/05/04 02:13:46;;;;;;;2.27;1.30;;;27.80;99.90;;;;;;5091783;28;20309;-67
2022/05/04 02:16:13;;;;;;;3.70;1.33;;;27.80;99.90;;;;;;5091576;28;20228;-68
2022/05/04 02:18:40;;;;;;;4.70;1.47;;;27.30;99.90;;;;;;5091357;28;20212;-68
2022/05/04 02:21:09;;;;;;;2.53;1.27;;;26.80;99.90;;;;;;5091754;28;20171;-67
2022/05/04 02:23:37;;;;;;;7.10;1.60;;;26.80;99.90;;;;;;5091239;28;20183;-68
2022/05/04 02:26:04;;;;;;;2.07;1.17;;;26.90;99.90;;;;;;5091309;28;20207;-67
2022/05/04 02:28:31;;;;;;;3.13;1.00;;;27.20;99.90;;;;;;5091285;28;20185;-69
2022/05/04 02:30:59;;;;;;;2.43;1.30;;;27.00;99.90;;;;;;5090012;28;20194;-69
2022/05/04 02:33:26;;;;;;;4.10;1.20;;;27.60;99.90;;;;;;5091769;28;20174;-69
2022/05/04 02:38:38;;;;;;;2.40;1.00;;;28.20;99.90;;;;;;5091608;28;20244;-69
2022/05/04 02:41:06;;;;;;;3.30;1.30;;;28.50;99.90;;;;;;5091742;28;20183;-69
2022/05/04 02:43:33;;;;;;;6.20;1.43;;;28.50;99.90;;;;;;5091098;28;20236;-69
2022/05/04 02:46:14;;;;;;;4.93;1.13;;;28.20;99.90;;;;;;5091385;28;20270;-69
2022/05/04 02:48:42;;;;;;;6.13;1.00;;;28.50;99.90;;;;;;5091686;28;20668;-68
2022/05/04 02:51:09;;;;;;;3.20;1.20;;;29.00;99.90;;;;;;5091350;28;20187;-69
2022/05/04 02:53:36;;;;;;;4.27;0.83;;;29.10;99.90;;;;;;5071600;28;20190;-69
2022/05/04 02:56:05;;;;;;;6.00;1.37;;;29.50;99.90;;;;;;5080520;28;20223;-69
2022/05/04 02:58:33;;;;;;;2.00;0.97;;;29.70;99.90;;;;;;5091694;28;20183;-69
2022/05/04 03:03:54;;;;;;;3.88;0.73;;;29.00;99.90;;;;;;5091719;28;20402;-69
2022/05/04 03:06:22;;;;;;;1.33;0.90;;;29.90;99.90;;;;;;5094851;28;20691;-69
2022/05/04 03:08:49;;;;;;;1.92;0.77;;;29.90;99.90;;;;;;5095010;28;20180;-71
2022/05/04 03:14:02;;;;;;;3.45;1.10;;;29.60;99.90;;;;;;5095373;28;20237;-70
2022/05/04 03:16:29;;;;;;;4.47;0.93;;;29.70;99.90;;;;;;5094801;28;20183;-68
2022/05/04 03:18:57;;;;;;;2.20;1.00;;;29.10;99.90;;;;;;5094899;28;20204;-69
2022/05/04 03:21:24;;;;;;;6.63;1.13;;;28.80;99.90;;;;;;5094792;28;20537;-69
2022/05/04 03:23:51;;;;;;;3.17;1.20;;;28.90;99.90;;;;;;5095002;28;20210;-69
2022/05/04 03:26:19;;;;;;;4.00;1.30;;;29.10;99.90;;;;;;5094735;28;20246;-69
2022/05/04 03:28:46;;;;;;;2.90;1.00;;;29.20;99.90;;;;;;5094441;28;20187;-70
2022/05/04 03:31:14;;;;;;;2.17;1.05;;;29.00;99.90;;;;;;5094822;28;20183;-69
2022/05/04 03:33:41;;;;;;;3.33;1.10;;;29.30;99.90;;;;;;5094814;28;20316;-69
2022/05/04 03:36:09;;;;;;;4.37;1.03;;;29.00;99.90;;;;;;5094956;28;20179;-69
2022/05/04 03:38:36;;;;;;;4.93;1.20;;;29.40;99.90;;;;;;5094577;28;20201;-71
2022/05/04 03:41:04;;;;;;;4.87;1.20;;;29.80;99.90;;;;;;5094475;28;20679;-73
2022/05/04 03:43:31;;;;;;;3.70;0.90;;;29.70;99.90;;;;;;5094400;28;20238;-73
2022/05/04 03:46:19;;;;;;;5.10;0.97;;;29.90;99.90;;;;;;5094203;28;20214;-73
2022/05/04 03:48:50;;;;;;;5.80;1.05;;;29.90;99.90;;;;;;5094486;28;20262;-73
2022/05/04 03:51:21;;;;;;;1.90;0.90;;;30.10;99.90;;;;;;5094296;28;20182;-73
2022/05/04 03:53:50;;;;;;;1.88;0.80;;;30.30;99.90;;;;;;5094674;28;20545;-72
2022/05/04 03:56:19;;;;;;;4.13;1.10;;;30.20;99.90;;;;;;5092928;28;20230;-72
2022/05/04 03:58:47;;;;;;;3.55;0.90;;;29.80;99.90;;;;;;5094101;28;20183;-72
2022/05/04 04:01:14;;;;;;;3.42;1.02;;;28.80;99.90;;;;;;5094091;28;20214;-72
2022/05/04 04:03:42;;;;;;;5.33;1.23;;;28.20;99.90;;;;;;5093942;28;20187;-71
2022/05/04 04:06:09;;;;;;;7.50;1.00;;;28.30;99.90;;;;;;5094988;28;20210;-72
2022/05/04 04:08:36;;;;;;;4.05;1.00;;;28.70;99.90;;;;;;5093729;28;20187;-75
2022/05/04 04:11:04;;;;;;;3.17;0.80;;;29.00;99.90;;;;;;5094679;28;20183;-75
2022/05/04 04:13:31;;;;;;;2.17;0.63;;;28.90;99.90;;;;;;5095343;28;20175;-69
2022/05/04 04:15:59;;;;;;;2.40;0.77;;;29.50;99.90;;;;;;5095034;28;20312;-73
2022/05/04 04:18:27;;;;;;;3.70;0.70;;;29.80;99.90;;;;;;5095357;28;20171;-68
2022/05/04 04:23:41;;;;;;;4.63;0.93;;;29.80;99.90;;;;;;5096136;28;20217;-73
2022/05/04 04:26:10;;;;;;;1.93;0.83;;;28.90;99.90;;;;;;5095206;28;20219;-69
2022/05/04 04:28:39;;;;;;;3.13;1.27;;;28.20;99.90;;;;;;5095360;28;20549;-72
2022/05/04 04:31:10;;;;;;;3.97;0.90;;;29.00;99.90;;;;;;5095069;28;20215;-70
2022/05/04 04:33:38;;;;;;;5.50;0.90;;;28.60;99.90;;;;;;5095524;28;20163;-70
2022/05/04 04:36:06;;;;;;;6.23;1.10;;;28.40;99.90;;;;;;5095163;28;20252;-73
2022/05/04 04:38:34;;;;;;;2.20;0.80;;;27.20;99.90;;;;;;5095001;28;20571;-73
2022/05/04 04:41:02;;;;;;;0.97;0.70;;;26.70;99.90;;;;;;5094787;28;20174;-70
2022/05/04 04:43:29;;;;;;;5.00;0.87;;;26.40;99.90;;;;;;5094807;28;20198;-71
2022/05/04 04:45:56;;;;;;;2.27;0.80;;;26.30;99.90;;;;;;5094844;28;20376;-71
2022/05/04 04:48:24;;;;;;;3.77;1.23;;;27.00;99.90;;;;;;5094932;28;20198;-72
2022/05/04 04:50:51;;;;;;;2.23;0.90;;;27.90;99.90;;;;;;5093443;28;20187;-69
2022/05/04 04:53:18;;;;;;;4.67;0.80;;;27.90;99.90;;;;;;5094683;28;20172;-74
2022/05/04 04:55:46;;;;;;;4.47;1.07;;;28.10;99.90;;;;;;5094605;28;20232;-75
2022/05/04 04:58:14;;;;;;;1.13;0.80;;;28.30;99.90;;;;;;5094673;28;20172;-70
2022/05/04 05:00:42;;;;;;;2.13;0.90;;;28.40;99.90;;;;;;5094740;28;20179;-67
2022/05/04 05:03:10;;;;;;;1.73;0.90;;;28.10;99.90;;;;;;5094349;28;20517;-75
2022/05/04 05:05:41;;;;;;;2.07;1.03;;;27.90;99.90;;;;;;5094439;28;20206;-75
2022/05/04 05:08:09;;;;;;;7.67;0.90;;;27.50;99.90;;;;;;5094411;28;20640;-73
2022/05/04 05:10:38;;;;;;;2.67;1.10;;;27.30;99.90;;;;;;5094845;28;20183;-74
2022/05/04 05:13:06;;;;;;;1.43;0.67;;;27.30;99.90;;;;;;5094750;28;20175;-75
2022/05/04 05:18:24;;;;;;;1.33;0.70;;;26.90;99.90;;;;;;5094583;28;20231;-76
2022/05/04 05:20:52;;;;;;;3.47;1.20;;;26.60;99.90;;;;;;5094295;28;20175;-74
2022/05/04 05:23:20;;;;;;;1.97;0.70;;;26.20;99.90;;;;;;5092659;28;20542;-75
2022/05/04 05:25:47;;;;;;;4.50;0.93;;;26.00;99.90;;;;;;5094178;28;20285;-74
2022/05/04 05:28:14;;;;;;;3.03;0.87;;;25.90;99.90;;;;;;5093471;28;20648;-74
2022/05/04 05:30:42;;;;;;;1.80;0.97;;;25.90;99.90;;;;;;5092645;28;20189;-74
2022/05/04 05:33:10;;;;;;;2.77;0.70;;;25.70;99.90;;;;;;5093893;28;20507;-74
2022/05/04 05:35:38;;;;;;;3.23;0.90;;;25.70;99.90;;;;;;5093897;28;20179;-75
2022/05/04 05:38:05;;;;;;;5.43;0.90;;;25.60;99.90;;;;;;5093844;28;20172;-74
2022/05/04 05:40:32;;;;;;;2.63;0.90;;;25.70;99.90;;;;;;5094052;28;20530;-74
2022/05/04 05:43:00;;;;;;;2.47;0.77;;;25.50;99.90;;;;;;5093621;28;20177;-75
2022/05/04 05:45:27;;;;;;;6.23;1.20;;;25.50;99.90;;;;;;5093690;28;20203;-77
2022/05/04 05:47:54;;;;;;;3.10;0.90;;;25.50;99.90;;;;;;5092276;28;20175;-75
2022/05/04 05:50:22;;;;;;;3.00;0.97;;;25.50;99.90;;;;;;5093739;28;20586;-73
2022/05/04 05:52:49;;;;;;;3.00;1.20;;;25.50;99.90;;;;;;5093787;28;20632;-77
2022/05/04 05:55:16;;;;;;;4.87;1.37;;;25.50;99.90;;;;;;5093314;28;20276;-74
2022/05/04 05:57:44;;;;;;;5.93;1.10;;;25.40;99.90;;;;;;5093748;28;20179;-74
2022/05/04 06:00:12;;;;;;;4.00;0.87;;;25.30;99.90;;;;;;5093496;28;20179;-75
2022/05/04 06:02:40;;;;;;;4.87;1.37;;;25.20;99.90;;;;;;5093485;28;20540;-75
2022/05/04 06:05:08;;;;;;;2.03;1.00;;;25.10;99.90;;;;;;5093393;28;20201;-73
2022/05/04 06:07:35;;;;;;;2.83;1.00;;;24.90;99.90;;;;;;5093278;28;20266;-73
2022/05/04 06:10:03;;;;;;;3.63;1.37;;;24.70;99.90;;;;;;5093326;28;20167;-74
2022/05/04 06:12:30;;;;;;;3.83;1.20;;;24.60;99.90;;;;;;5093431;28;20182;-74
2022/05/04 06:14:57;;;;;;;3.33;1.20;;;24.40;99.90;;;;;;5093177;28;20175;-73
2022/05/04 06:17:25;;;;;;;2.77;0.87;;;24.20;99.90;;;;;;5093391;28;20172;-74
2022/05/04 06:19:52;;;;;;;3.57;1.10;;;24.00;99.90;;;;;;5093436;28;20176;-74
2022/05/04 06:22:19;;;;;;;2.53;1.07;;;23.80;99.90;;;;;;5093153;28;20167;-73
2022/05/04 06:24:47;;;;;;;2.80;1.37;;;23.60;99.90;;;;;;5093167;28;20540;-75
2022/05/04 06:27:14;;;;;;;3.40;1.27;;;23.50;99.90;;;;;;5093160;28;20211;-74
2022/05/04 06:35:12;;;;;;;2.53;1.30;;;23.40;99.90;;;;;;5093054;28;20638;-74
2022/05/04 06:37:39;;;;;;;3.83;1.47;;;23.40;99.90;;;;;;5093125;28;20269;-74
2022/05/04 06:40:07;;;;;;;2.07;1.20;;;23.30;99.90;;;;;;5094730;28;20228;-74
2022/05/04 06:42:35;;;;;;;2.37;1.30;;;23.20;99.90;;;;;;5097055;28;20171;-75
2022/05/04 06:45:03;;;;;;;3.13;1.20;;;23.10;99.90;;;;;;5097360;28;20174;-75
2022/05/04 06:47:30;;;;;;;6.50;1.63;;;22.90;99.90;;;;;;5097114;28;20191;-74
2022/05/04 06:49:57;;;;;;;3.23;1.80;;;22.80;99.90;;;;;;5097039;28;20178;-74
2022/05/04 06:52:25;;;;;;;4.20;1.80;;;22.70;99.90;;;;;;5096917;28;20264;-72
2022/05/04 06:54:53;;;;;;;8.80;1.17;;;22.60;99.90;;;;;;5096687;28;20273;-75
2022/05/04 06:57:21;;;;;;;4.13;1.40;;;22.50;99.90;;;;;;5097655;28;20171;-74
2022/05/04 06:59:48;;;;;;;4.50;1.37;;;22.40;99.90;;;;;;5096848;28;20190;-71
2022/05/04 07:02:15;;;;;;;4.67;1.73;;;22.30;99.90;;;;;;5096925;28;20167;-73
2022/05/04 07:04:43;;;;;;;4.30;2.10;;;22.10;99.90;;;;;;5096805;28;20171;-73
2022/05/04 07:07:10;;;;;;;4.43;1.83;;;22.00;99.90;;;;;;5096768;28;20264;-74
2022/05/04 07:09:37;;;;;;;67.77;9.33;;;21.90;99.90;;;;;;5096752;28;20209;-73
2022/05/04 07:12:05;;;;;;;29.53;8.00;;;21.80;99.90;;;;;;5096881;28;20179;-74
2022/05/04 07:14:33;;;;;;;9.27;3.03;;;21.60;99.90;;;;;;5096607;28;20632;-74
2022/05/04 07:17:00;;;;;;;24.10;5.40;;;21.40;99.90;;;;;;5096419;28;20167;-74
2022/05/04 07:19:27;;;;;;;11.33;3.90;;;21.40;99.90;;;;;;5096753;28;20185;-74
2022/05/04 07:21:55;;;;;;;17.03;3.63;;;21.30;99.90;;;;;;5096456;28;20258;-74
2022/05/04 07:24:22;;;;;;;17.90;3.87;;;21.10;99.90;;;;;;5096347;28;20187;-74
2022/05/04 07:26:49;;;;;;;9.17;2.60;;;21.10;99.90;;;;;;5096326;28;20716;-75
2022/05/04 07:29:17;;;;;;;9.90;2.93;;;21.00;99.90;;;;;;5096451;28;20516;-75
2022/05/04 07:31:44;;;;;;;8.63;2.80;;;20.80;99.90;;;;;;5096460;28;20183;-73
2022/05/04 07:34:17;;;;;;;6.47;3.17;;;20.70;99.90;;;;;;5096347;28;20541;-74
2022/05/04 07:36:45;;;;;;;8.40;3.77;;;20.70;99.90;;;;;;5096084;28;20231;-72
2022/05/04 07:44:43;;;;;;;6.57;2.77;;;20.50;99.90;;;;;;5096613;28;20186;-75
2022/05/04 07:47:10;;;;;;;5.53;2.60;;;20.40;99.90;;;;;;5097485;28;20222;-74
2022/05/04 07:49:38;;;;;;;6.80;2.67;;;20.30;99.90;;;;;;5097791;28;20236;-72
2022/05/04 07:52:05;;;;;;;4.87;2.47;;;20.20;99.90;;;;;;5095897;28;20232;-74
2022/05/04 07:54:33;;;;;;;7.80;2.77;;;20.10;99.90;;;;;;5095677;28;20167;-74
2022/05/04 07:57:00;;;;;;;6.13;2.87;;;20.10;99.90;;;;;;5095797;28;20198;-75
2022/05/04 07:59:27;;;;;;;8.13;2.97;;;20.00;99.90;;;;;;5095913;28;20179;-73
2022/05/04 08:04:40;;;;;;;8.33;2.60;;;19.90;99.90;;;;;;5095747;28;20631;-75
2022/05/04 08:07:08;;;;;;;4.93;2.20;;;19.90;99.90;;;;;;5095577;28;20267;-73
2022/05/04 08:09:36;;;;;;;3.80;2.40;;;19.90;99.90;;;;;;5095676;28;20205;-73
2022/05/04 08:12:06;;;;;;;7.20;2.83;;;19.90;99.90;;;;;;5095638;28;20205;-75
2022/05/04 08:14:34;;;;;;;7.30;2.60;;;19.80;99.90;;;;;;5095622;28;20181;-73
2022/05/04 08:17:01;;;;;;;11.30;3.03;;;19.90;99.90;;;;;;5095252;28;20689;-71
2022/05/04 08:19:29;;;;;;;7.43;3.70;;;19.90;99.90;;;;;;5095368;28;20574;-72
2022/05/04 08:21:56;;;;;;;6.07;3.27;;;19.90;99.90;;;;;;5095227;28;20176;-73
2022/05/04 08:24:24;;;;;;;6.20;3.37;;;19.90;99.90;;;;;;5095411;28;20201;-72
2022/05/04 08:26:52;;;;;;;7.23;3.20;;;19.80;99.90;;;;;;5095342;28;20216;-72
2022/05/04 08:29:19;;;;;;;5.40;3.10;;;19.80;99.90;;;;;;5095323;28;20686;-73
2022/05/04 08:31:47;;;;;;;5.87;3.17;;;19.70;99.90;;;;;;5095163;28;20210;-74
2022/05/04 08:34:14;;;;;;;17.60;4.57;;;19.70;99.90;;;;;;5095340;28;20202;-74
2022/05/04 08:36:41;;;;;;;9.37;3.97;;;19.70;99.90;;;;;;5095108;28;20192;-74
2022/05/04 08:39:09;;;;;;;11.00;3.70;;;19.60;99.90;;;;;;5095237;28;20169;-74
2022/05/04 08:41:43;;;;;;;13.63;3.57;;;19.50;99.90;;;;;;5095004;28;20255;-74
2022/05/04 08:44:12;;;;;;;8.90;3.23;;;19.50;99.90;;;;;;5094916;28;20237;-74
2022/05/04 08:46:43;;;;;;;8.30;3.77;;;19.50;99.90;;;;;;5093516;28;20214;-73
2022/05/04 08:49:12;;;;;;;7.93;4.13;;;19.40;99.90;;;;;;5095219;28;20175;-73
2022/05/04 08:51:41;;;;;;;10.63;3.80;;;19.40;99.90;;;;;;5094642;28;20331;-70
2022/05/04 08:54:09;;;;;;;6.67;4.13;;;19.40;99.90;;;;;;5094889;28;20184;-73
2022/05/04 08:56:37;;;;;;;6.87;3.37;;;19.40;99.90;;;;;;5094487;28;20227;-74
2022/05/04 08:59:07;;;;;;;8.60;3.60;;;19.40;99.90;;;;;;5093313;28;20174;-74
2022/05/04 09:01:39;;;;;;;8.77;3.87;;;19.40;99.90;;;;;;5094585;28;20169;-73
2022/05/04 09:04:07;;;;;;;6.97;3.97;;;19.40;99.90;;;;;;5094242;28;20179;-74
2022/05/04 09:06:42;;;;;;;12.43;4.43;;;19.30;99.90;;;;;;5094430;28;20235;-74
2022/05/04 09:09:12;;;;;;;9.47;3.87;;;19.30;99.90;;;;;;5094453;28;20170;-74
2022/05/04 09:11:44;;;;;;;8.10;3.83;;;19.30;99.90;;;;;;5094501;28;20179;-74
2022/05/04 09:14:12;;;;;;;8.70;4.30;;;19.30;99.90;;;;;;5094441;28;20187;-73
2022/05/04 09:16:40;;;;;;;10.83;4.07;;;19.30;99.90;;;;;;5094291;28;20180;-73
2022/05/04 09:19:10;;;;;;;13.07;4.13;;;19.30;99.90;;;;;;5094272;28;20176;-74
2022/05/04 09:21:41;;;;;;;9.90;3.77;;;19.30;99.90;;;;;;5094258;28;20238;-72
2022/05/04 09:24:09;;;;;;;5.40;3.30;;;19.20;99.90;;;;;;5092885;28;20219;-73
2022/05/04 09:26:41;;;;;;;7.43;3.63;;;19.10;99.90;;;;;;5094061;28;20308;-73
2022/05/04 09:29:11;;;;;;;10.90;4.33;;;19.10;99.90;;;;;;5094193;28;20232;-74
2022/05/04 09:31:46;;;;;;;7.97;3.87;;;19.10;99.90;;;;;;5094163;28;20180;-74
2022/05/04 09:34:14;;;;;;;9.37;4.70;;;19.10;99.90;;;;;;5092799;28;20271;-72
2022/05/04 09:45:11;;;;;;;9.73;4.17;;;18.90;99.90;;;;;;5094235;28;20186;-73
2022/05/04 09:47:40;;;;;;;8.27;3.93;;;18.80;99.90;;;;;;5093864;28;20186;-75
2022/05/04 09:50:17;;;;;;;8.47;4.00;;;18.90;99.90;;;;;;5093806;28;20215;-75
2022/05/04 09:52:50;;;;;;;11.57;4.10;;;18.90;99.90;;;;;;5093850;28;20657;-73
2022/05/04 09:55:25;;;;;;;14.20;4.83;;;18.90;99.90;;;;;;5093420;28;20229;-73
2022/05/04 09:57:56;;;;;;;10.03;4.33;;;18.90;99.90;;;;;;5093660;28;20193;-70
2022/05/04 10:00:26;;;;;;;9.77;4.60;;;18.80;99.90;;;;;;5093810;28;20178;-72
2022/05/04 10:02:57;;;;;;;9.90;4.03;;;18.80;99.90;;;;;;5092075;28;20257;-71
2022/05/04 10:05:24;;;;;;;9.53;4.47;;;18.80;99.90;;;;;;5093452;28;20648;-73
2022/05/04 10:07:52;;;;;;;11.50;5.07;;;18.80;99.90;;;;;;5093554;28;20183;-72
2022/05/04 10:10:21;;;;;;;7.83;4.80;;;18.80;99.90;;;;;;5093539;28;20175;-72
2022/05/04 10:12:49;;;;;;;10.60;5.33;;;18.80;99.90;;;;;;5093562;28;20216;-71
2022/05/04 10:15:19;;;;;;;13.53;5.43;;;18.80;99.90;;;;;;5093279;28;20264;-72
2022/05/04 10:18:11;;;;;;;15.87;6.10;;;18.80;99.90;;;;;;5093874;28;20213;-74
2022/05/04 10:21:09;;;;;;;10.63;5.47;;;18.80;99.90;;;;;;5093712;28;20256;-73
2022/05/04 10:23:43;;;;;;;10.87;5.37;;;18.90;99.90;;;;;;5091443;28;20186;-72
2022/05/04 10:26:13;;;;;;;25.93;5.93;;;18.80;99.90;;;;;;5093179;28;20232;-69
2022/05/04 10:31:30;;;;;;;14.10;5.63;;;18.90;99.90;;;;;;5093640;28;20178;-68
2022/05/04 10:33:57;;;;;;;9.67;5.40;;;18.90;99.90;;;;;;5093884;28;20173;-69
2022/05/04 10:36:32;;;;;;;11.47;5.93;;;19.00;99.90;;;;;;5091938;28;20637;-74
2022/05/04 10:39:04;;;;;;;8.77;5.77;;;18.90;99.90;;;;;;5093230;28;20177;-68
2022/05/04 10:41:40;;;;;;;10.90;5.27;;;18.90;99.90;;;;;;5093107;28;20316;-70
2022/05/04 10:44:12;;;;;;;12.90;5.60;;;19.00;99.90;;;;;;5093180;28;20182;-72
2022/05/04 10:46:46;;;;;;;13.93;5.60;;;19.00;99.90;;;;;;5092928;28;20258;-75
2022/05/04 10:49:16;;;;;;;19.53;6.33;;;19.00;99.90;;;;;;5093171;28;20306;-71
2022/05/04 10:51:50;;;;;;;8.53;5.23;;;18.90;99.90;;;;;;5093243;28;20238;-72
2022/05/04 10:54:22;;;;;;;13.77;6.03;;;18.90;99.90;;;;;;5093068;28;20177;-73
2022/05/04 10:56:51;;;;;;;11.40;6.07;;;18.80;99.90;;;;;;5093575;28;20203;-74
2022/05/04 10:59:31;;;;;;;11.17;6.27;;;18.80;99.90;;;;;;5093804;28;20512;-75
2022/05/04 11:02:11;;;;;;;13.30;6.00;;;18.80;99.90;;;;;;5094040;28;20199;-72
2022/05/04 11:04:41;;;;;;;8.87;5.10;;;18.80;99.90;;;;;;5093657;28;20665;-73
2022/05/04 11:07:09;;;;;;;10.13;4.77;;;18.70;99.90;;;;;;5093566;28;20215;-74
2022/05/04 11:09:42;;;;;;;7.87;4.57;;;18.70;99.90;;;;;;5093777;28;20174;-74
2022/05/04 11:12:11;;;;;;;11.37;6.03;;;18.70;99.90;;;;;;5093892;28;20187;-74
2022/05/04 11:14:40;;;;;;;8.10;5.60;;;18.60;99.90;;;;;;5093566;28;20187;-75
2022/05/04 11:17:12;;;;;;;11.03;5.37;;;18.60;99.90;;;;;;5093099;28;20182;-75
2022/05/04 11:19:45;;;;;;;11.07;5.50;;;18.60;99.90;;;;;;5093046;28;20179;-73
2022/05/04 11:22:15;;;;;;;10.67;5.50;;;18.60;99.90;;;;;;5092945;28;20224;-74
2022/05/04 11:24:43;;;;;;;10.43;4.90;;;18.60;99.90;;;;;;5091603;28;20646;-73
2022/05/04 11:27:15;;;;;;;13.67;5.63;;;18.60;99.90;;;;;;5094528;28;20242;-73
2022/05/04 11:29:44;;;;;;;13.43;5.13;;;18.50;99.90;;;;;;5096623;28;20178;-72
2022/05/04 11:32:19;;;;;;;8.03;5.10;;;18.50;99.90;;;;;;5096420;28;20202;-74
2022/05/04 11:34:47;;;;;;;8.90;4.67;;;18.50;99.90;;;;;;5096466;28;20210;-76
2022/05/04 11:37:15;;;;;;;12.67;5.53;;;18.50;99.90;;;;;;5095430;28;20179;-74
2022/05/04 11:39:44;;;;;;;12.00;4.97;;;18.50;99.90;;;;;;5094993;28;20187;-72
2022/05/04 11:42:12;;;;;;;7.00;4.67;;;18.50;99.90;;;;;;5092452;28;20197;-72
2022/05/04 11:44:46;;;;;;;10.10;4.80;;;18.50;99.90;;;;;;5096277;28;20176;-72
2022/05/04 11:47:14;;;;;;;8.40;5.30;;;18.50;99.90;;;;;;5095130;28;20298;-73
2022/05/04 11:49:41;;;;;;;8.30;4.93;;;18.50;99.90;;;;;;5095881;28;20175;-71
2022/05/04 11:52:10;;;;;;;13.20;4.90;;;18.50;99.90;;;;;;5095612;28;20577;-73
2022/05/04 11:54:38;;;;;;;10.60;5.07;;;18.40;99.90;;;;;;5094254;28;20225;-73
2022/05/04 11:57:15;;;;;;;9.47;5.20;;;18.40;99.90;;;;;;5095193;28;20179;-72
2022/05/04 11:59:43;;;;;;;11.40;5.20;;;18.40;99.90;;;;;;5095332;28;20171;-73
2022/05/04 12:02:11;;;;;;;11.40;5.10;;;18.30;99.90;;;;;;5094477;28;20181;-73
2022/05/04 12:04:39;;;;;;;12.53;5.07;;;18.30;99.90;;;;;;5095569;28;20227;-72
2022/05/04 12:07:07;;;;;;;11.50;4.70;;;18.30;99.90;;;;;;5095239;28;20741;-72
2022/05/04 12:09:35;;;;;;;7.97;4.73;;;18.40;99.90;;;;;;5095219;28;20206;-72
2022/05/04 12:12:03;;;;;;;7.97;4.83;;;18.40;99.90;;;;;;5095306;28;20182;-73
2022/05/04 12:14:31;;;;;;;10.17;5.00;;;18.40;99.90;;;;;;5094693;28;20175;-73
2022/05/04 12:16:59;;;;;;;7.73;4.63;;;18.30;99.90;;;;;;5094052;28;20185;-72
2022/05/04 12:19:30;;;;;;;12.03;4.80;;;18.30;99.90;;;;;;5095003;28;20344;-71
2022/05/04 12:21:57;;;;;;;11.43;5.40;;;18.30;99.90;;;;;;5095338;28;20181;-73
2022/05/04 12:24:25;;;;;;;11.93;4.90;;;18.30;99.90;;;;;;5095173;28;20179;-73
2022/05/04 12:26:55;;;;;;;10.80;4.37;;;18.30;99.90;;;;;;5094953;28;20215;-72
2022/05/04 12:34:56;;;;;;;15.10;5.60;;;18.30;99.90;;;;;;5095040;28;20186;-70
2022/05/04 12:37:30;;;;;;;10.17;4.83;;;18.20;99.90;;;;;;5093621;28;20173;-73
2022/05/04 12:39:57;;;;;;;9.33;4.73;;;18.20;99.90;;;;;;5094792;28;20187;-73
2022/05/04 12:42:26;;;;;;;9.43;4.33;;;18.20;99.90;;;;;;5094937;28;20221;-72
2022/05/04 12:44:54;;;;;;;10.47;4.67;;;18.20;99.90;;;;;;5094667;28;20200;-72
2022/05/04 12:47:24;;;;;;;8.93;4.20;;;18.20;99.90;;;;;;5094944;28;20680;-71
2022/05/04 12:49:54;;;;;;;9.60;4.63;;;18.10;99.90;;;;;;5094196;28;20178;-71
2022/05/04 12:52:22;;;;;;;8.83;4.60;;;18.20;99.90;;;;;;5094727;28;20582;-69
2022/05/04 12:54:50;;;;;;;10.93;4.80;;;18.10;99.90;;;;;;5094279;28;20230;-72
2022/05/04 12:57:18;;;;;;;8.90;4.10;;;18.20;99.90;;;;;;5094778;28;20167;-70
2022/05/04 12:59:45;;;;;;;8.47;4.30;;;18.10;99.90;;;;;;5094671;28;20175;-70
2022/05/04 13:02:13;;;;;;;9.20;5.00;;;18.10;99.90;;;;;;5094444;28;20163;-69
2022/05/04 13:04:41;;;;;;;7.67;4.50;;;18.10;99.90;;;;;;5094266;28;20221;-70
2022/05/04 13:07:08;;;;;;;14.97;4.77;;;18.10;99.90;;;;;;5094076;28;20258;-71
2022/05/04 13:09:36;;;;;;;10.47;4.77;;;18.10;99.90;;;;;;5094476;28;20225;-70
2022/05/04 13:12:04;;;;;;;7.60;4.67;;;18.10;99.90;;;;;;5093082;28;20179;-71
2022/05/04 13:14:32;;;;;;;10.07;4.53;;;18.20;99.90;;;;;;5094167;28;20193;-73
2022/05/04 13:17:00;;;;;;;9.37;5.00;;;18.20;99.90;;;;;;5093065;28;20182;-71
2022/05/04 13:19:28;;;;;;;9.40;4.87;;;18.20;99.90;;;;;;5094240;28;20212;-71
2022/05/04 13:21:56;;;;;;;10.77;4.97;;;18.10;99.90;;;;;;5092460;28;20232;-72
2022/05/04 13:24:24;;;;;;;9.90;5.30;;;18.10;99.90;;;;;;5093795;28;20187;-70
2022/05/04 13:26:51;;;;;;;13.13;4.77;;;18.10;99.90;;;;;;5094199;28;20298;-70
2022/05/04 13:29:19;;;;;;;14.07;4.70;;;18.10;99.90;;;;;;5094279;28;20190;-70
2022/05/04 13:31:49;;;;;;;12.40;4.40;;;18.10;99.90;;;;;;5094064;28;20177;-70
2022/05/04 13:34:17;;;;;;;7.30;4.37;;;18.10;99.90;;;;;;5092354;28;20186;-69
2022/05/04 13:36:44;;;;;;;7.27;3.97;;;18.20;99.90;;;;;;5094011;28;20175;-70